DIAPGBYD

Guest
Details From DIAP - Abidjan Felix Houphouet Boigny Intl
To GBYD - Banjul Intl
Flight Number -
Tags Generated
Created
Modified
Stats Distance 897 nm / 1,662 km
Max Altitude 0 ft / 0 m
Waypoints 3
Social Downloads 1
Likes 0
Share VATSIM

Download

Looking for another format? Having issues loading an existing format? Contact us
Advertisement - Login to hide

Notes

Generated

Route

DIAP ND GBYD

ID Type Via Altitude Latitude Longitude Leg Dist Tot Dist Heading (true) Name
O DIAP APT - 0 ft / 0 m 5.24885˚ -3.93145˚ - 0 nm - -
ND NDB - 0 ft / 0 m 13.34538˚ -16.65744˚ 896 nm 896 nm 304° / 302° BANJUL NDB
O GBYD APT - 0 ft / 0 m 13.34855˚ -16.66481˚ 0 nm 897 nm 294° / 294° -

Altitude Profile

Advertisement - Login to hide

Weather


0- 5 10 15 20 25 30 35+ Temperature / ° C

Clouds and Precipitation
Forecast for 2017-12-16 18:00 UTC. Updated a minute ago

Ground ~20,000 ft ~40,000 ft Winds

DIAP

Details ICAO DIAP (ABJ)
Name Abidjan Felix Houphouet Boigny Intl
Region Côte d'Ivoire
Timezone Africa/Abidjan (UTC+0.0)
Stats Elevation 21 ft / 6 m (AMSL)
Location 5.261386° -3.926296°
Runways 1
Magnetic Variation 4.682° W

METAR

DIAP 161500Z 23010KT 190V260 7000 SCT012 30/26 Q1009 NOSIG

Decode

TAF

TAF DIAP 161100Z 1612/1718 21010KT 7000 SCT012 BECMG 1612/1615 4000 TSRA BKN012 FEW020CB BECMG 1619/1621 NSW PROB30 1702/1708 VRB02KT 2000 BR FEW010 PROB30 TEMPO 1714/1718 TS BKN012 FEW020CB

Decode

Departure Runways

ID Width Length Bearing (true) Bearing (mag) Surface Threshold Offset Overrun Length
03 164 ft / 50 m 9,889 ft / 3,014 m 22.27° 26.95° Asphalt 0 ft / 0 m 197 ft / 60 m
21 164 ft / 50 m 9,889 ft / 3,014 m 202.27° 206.95° Asphalt 0 ft / 0 m 328 ft / 100 m

GBYD

Details ICAO GBYD (BJL)
Name Banjul Intl
Region The Gambia
Timezone Africa/Banjul (UTC+0.0)
Stats Elevation 95 ft / 29 m (AMSL)
Location 13.337960° -16.652206°
Runways 1
Magnetic Variation 7.311° W

METAR

GBYD 161500Z 10008KT CAVOK 34/11 Q1012

Decode

TAF

TAF TAF GBYD 161130Z 1612/1718 04010KT 8000 NSC

Decode

Destination Runways

ID Width Length Bearing (true) Bearing (mag) Surface Threshold Offset Overrun Length
14 148 ft / 45 m 11,825 ft / 3,604 m 130.82° 138.13° Asphalt 500 ft / 152 m 197 ft / 60 m
32 148 ft / 45 m 11,825 ft / 3,604 m 310.83° 318.14° Asphalt 500 ft / 152 m 393 ft / 120 m